KWE weather

Longdongbao Airport
Guiyang, Guizhou Province, China

Public forecast

Using degrees Celsius for public forecast. Weather courtesy of forecast.io.

Current aviation weather report (METAR) for Longdongbao Airport

Retrieved 2020/01/20 05:00 UTC (32 minutes ago):

ZUGY 200500Z 11002MPS 090V150 7000 -RA FEW008 BKN016 OVC033 06/05 Q1020 NOSIG

Aviation forecast (TAF) for Longdongbao Airport

Retrieved 2020-01-20 00:00 UTC (6 hours ago):

TAF ZUGY 191915Z 2000/2024 18003MPS 6000 BKN015 OVC026 TX10/2007Z TN05/2000Z TEMPO 2000/2002 2500 -RA BR FEW002 BKN012 OVC026